createdAt,value
2019-04-27T00:02:18.176Z,22.97
2019-04-27T00:05:35.334Z,20.30
2019-04-27T00:08:50.098Z,21.50
2019-04-27T00:11:49.514Z,21.40
2019-04-27T00:14:37.954Z,21.47
2019-04-27T00:17:48.671Z,20.67
2019-04-27T00:20:50.151Z,21.73
2019-04-27T00:23:38.292Z,21.40
2019-04-27T00:26:27.395Z,21.07
2019-04-27T00:29:15.599Z,20.87
2019-04-27T00:32:04.227Z,21.60
2019-04-27T00:34:53.238Z,19.23
2019-04-27T00:37:53.094Z,19.93
2019-04-27T00:40:45.099Z,19.70
2019-04-27T00:43:33.383Z,21.20
2019-04-27T00:46:22.806Z,19.40
2019-04-27T00:49:11.651Z,19.30
2019-04-27T00:51:59.874Z,18.93
2019-04-27T00:54:48.411Z,19.23
2019-04-27T00:58:01.683Z,19.20
2019-04-27T01:00:59.047Z,18.27
2019-04-27T01:03:53.301Z,17.33
2019-04-27T01:06:43.769Z,17.73
2019-04-27T01:09:33.867Z,17.73
2019-04-27T01:12:23.672Z,19.43
2019-04-27T01:15:13.586Z,17.37
2019-04-27T01:18:12.340Z,17.37
2019-04-27T01:20:51.983Z,16.93
2019-04-27T01:23:41.140Z,17.63
2019-04-27T01:26:40.283Z,16.37
2019-04-27T01:29:29.138Z,15.50
2019-04-27T01:32:18.619Z,14.23
2019-04-27T01:35:08.536Z,13.30
2019-04-27T01:37:58.811Z,12.80
2019-04-27T01:40:46.475Z,13.13
2019-04-27T01:43:34.337Z,14.30
2019-04-27T01:46:22.323Z,15.23
2019-04-27T01:49:10.562Z,13.37
2019-04-27T01:51:59.414Z,16.20
2019-04-27T01:54:49.400Z,10.63
2019-04-27T01:57:38.669Z,11.07
2019-04-27T02:00:39.609Z,11.33
2019-04-27T02:03:59.069Z,11.73
2019-04-27T02:06:49.907Z,10.70
2019-04-27T02:09:38.754Z,10.10
2019-04-27T02:12:26.580Z,11.47
2019-04-27T02:15:14.491Z,11.30
2019-04-27T02:18:03.320Z,11.10
2019-04-27T02:20:51.359Z,10.40
2019-04-27T02:23:39.407Z,11.30
2019-04-27T02:26:29.821Z,10.00
2019-04-27T02:29:42.403Z,11.63
2019-04-27T02:33:04.856Z,8.80
2019-04-27T02:35:52.403Z,11.50
2019-04-27T02:38:40.616Z,9.30
2019-04-27T02:41:29.724Z,10.97
2019-04-27T02:44:22.846Z,8.70
2019-04-27T02:47:10.903Z,9.07
2019-04-27T02:50:00.677Z,11.80
2019-04-27T02:52:50.070Z,9.43
2019-04-27T02:55:39.721Z,10.33
2019-04-27T02:58:28.417Z,8.90
2019-04-27T03:01:16.812Z,8.77
2019-04-27T03:04:04.710Z,9.73
2019-04-27T03:06:52.587Z,9.17
2019-04-27T03:09:40.803Z,8.63
2019-04-27T03:12:33.753Z,7.40
2019-04-27T03:15:36.612Z,7.80
2019-04-27T03:18:33.517Z,6.30
2019-04-27T03:21:24.707Z,5.77
2019-04-27T03:24:13.307Z,6.33
2019-04-27T03:27:02.853Z,12.13
2019-04-27T03:29:51.219Z,7.53
2019-04-27T03:32:42.960Z,6.90
2019-04-27T03:35:35.333Z,5.27
2019-04-27T03:38:19.723Z,8.40
2019-04-27T03:41:09.541Z,5.23
2019-04-27T03:43:59.504Z,4.93
2019-04-27T03:46:49.629Z,5.90
2019-04-27T03:49:40.892Z,4.57
2019-04-27T03:52:36.319Z,4.03
2019-04-27T03:55:27.824Z,5.50
2019-04-27T03:58:23.887Z,5.03
2019-04-27T04:01:11.730Z,4.63
2019-04-27T04:04:00.035Z,4.40
2019-04-27T04:06:49.476Z,5.77
2019-04-27T04:09:40.832Z,4.70
2019-04-27T04:12:56.050Z,4.50
2019-04-27T04:16:00.276Z,6.17
2019-04-27T04:19:03.436Z,5.70
2019-04-27T04:21:51.610Z,5.00
2019-04-27T04:24:39.932Z,6.40
2019-04-27T04:27:29.951Z,5.17
2019-04-27T04:30:19.914Z,6.77
2019-04-27T04:33:10.201Z,7.10
2019-04-27T04:35:59.619Z,5.90
2019-04-27T04:38:47.101Z,7.27
2019-04-27T04:41:43.631Z,5.77
2019-04-27T04:44:41.989Z,6.13
2019-04-27T04:47:40.742Z,5.50
2019-04-27T04:50:30.452Z,6.40
2019-04-27T04:53:20.616Z,5.13
2019-04-27T04:56:09.009Z,7.30
2019-04-27T04:58:59.831Z,6.37
2019-04-27T05:01:49.708Z,5.63
2019-04-27T05:04:36.707Z,4.10
2019-04-27T05:07:24.627Z,6.23
2019-04-27T05:10:12.677Z,4.80
2019-04-27T05:13:00.738Z,3.90
2019-04-27T05:15:48.892Z,3.47
2019-04-27T05:18:39.274Z,4.20
2019-04-27T05:21:31.398Z,2.97
2019-04-27T05:24:19.942Z,3.40
2019-04-27T05:27:09.207Z,3.53
2019-04-27T05:29:58.260Z,4.17
2019-04-27T05:32:46.168Z,3.63
2019-04-27T05:35:34.319Z,3.73
2019-04-27T05:38:22.710Z,6.93
2019-04-27T05:41:11.187Z,3.93
2019-04-27T05:44:18.441Z,4.93
2019-04-27T05:47:31.583Z,6.67
2019-04-27T05:50:21.986Z,3.83
2019-04-27T05:53:08.745Z,3.43
2019-04-27T05:55:57.056Z,4.83
2019-04-27T05:58:45.214Z,7.20
2019-04-27T06:01:33.179Z,8.50
2019-04-27T06:04:21.698Z,5.40
2019-04-27T06:07:09.603Z,3.93
2019-04-27T06:09:59.528Z,4.70
2019-04-27T06:12:48.501Z,4.00
2019-04-27T06:15:38.847Z,5.00
2019-04-27T06:18:27.207Z,3.03
2019-04-27T06:21:15.238Z,3.30
2019-04-27T06:24:04.027Z,6.27
2019-04-27T06:26:51.619Z,3.77
2019-04-27T06:29:40.913Z,4.30
2019-04-27T06:32:29.686Z,3.60
2019-04-27T06:35:18.632Z,4.90
2019-04-27T06:38:07.038Z,3.20
2019-04-27T06:40:54.944Z,6.50
2019-04-27T06:43:43.463Z,4.70
2019-04-27T06:46:31.071Z,4.00
2019-04-27T06:49:19.487Z,3.70
2019-04-27T06:52:08.675Z,4.30
2019-04-27T06:54:57.071Z,4.97
2019-04-27T06:57:45.043Z,4.57
2019-04-27T07:00:33.507Z,4.47
2019-04-27T07:03:21.771Z,3.90
2019-04-27T07:06:09.535Z,10.23
2019-04-27T07:08:59.785Z,6.03
2019-04-27T07:11:49.402Z,7.03
2019-04-27T07:14:50.321Z,4.60
2019-04-27T07:17:28.825Z,4.97
2019-04-27T07:20:16.555Z,5.90
2019-04-27T07:23:04.610Z,4.27
2019-04-27T07:25:52.547Z,5.33
2019-04-27T07:28:41.034Z,7.67
2019-04-27T07:31:31.747Z,6.67
2019-04-27T07:34:19.099Z,6.30
2019-04-27T07:37:09.294Z,8.00
2019-04-27T07:39:56.951Z,6.00
2019-04-27T07:42:46.148Z,5.47
2019-04-27T07:45:39.443Z,7.23
2019-04-27T07:48:28.643Z,7.93
2019-04-27T07:51:29.558Z,8.93
2019-04-27T07:54:06.827Z,8.23
2019-04-27T07:56:55.259Z,7.57
2019-04-27T07:59:43.952Z,9.40
2019-04-27T08:02:31.786Z,6.70
2019-04-27T08:05:20.566Z,10.73
2019-04-27T08:08:09.021Z,9.43
2019-04-27T08:10:57.307Z,8.50
2019-04-27T08:13:44.797Z,11.87
2019-04-27T08:16:33.267Z,8.27
2019-04-27T08:19:21.196Z,9.50
2019-04-27T08:22:09.781Z,7.60
2019-04-27T08:24:59.485Z,8.77
2019-04-27T08:28:15.856Z,6.80
2019-04-27T08:31:20.467Z,7.30
2019-04-27T08:34:27.274Z,9.00
2019-04-27T08:37:15.262Z,6.80
2019-04-27T08:40:03.782Z,9.00
2019-04-27T08:42:51.774Z,6.40
2019-04-27T08:45:39.402Z,6.50
2019-04-27T08:48:36.034Z,6.57
2019-04-27T08:51:16.792Z,6.13
2019-04-27T08:54:05.157Z,7.07
2019-04-27T08:56:53.408Z,6.10
2019-04-27T08:59:41.388Z,6.70
2019-04-27T09:02:39.812Z,7.27
2019-04-27T09:05:25.468Z,6.23
2019-04-27T09:08:29.118Z,6.17
2019-04-27T09:11:22.692Z,5.27
2019-04-27T09:14:16.551Z,6.07
2019-04-27T09:17:33.409Z,8.87
2019-04-27T09:20:24.212Z,7.63
2019-04-27T09:23:12.238Z,7.87
2019-04-27T09:26:00.755Z,7.40
2019-04-27T09:28:49.293Z,7.30
2019-04-27T09:31:39.438Z,8.03
2019-04-27T09:34:27.740Z,8.20
2019-04-27T09:37:15.995Z,7.10
2019-04-27T09:40:03.901Z,6.73
2019-04-27T09:42:52.072Z,7.10
2019-04-27T09:45:40.726Z,9.27
2019-04-27T09:48:28.999Z,9.80
2019-04-27T09:51:17.032Z,11.10
2019-04-27T09:54:05.898Z,12.80
2019-04-27T09:56:56.122Z,12.23
2019-04-27T09:59:46.033Z,11.60
2019-04-27T10:02:34.496Z,10.70
2019-04-27T10:05:22.718Z,11.50
2019-04-27T10:08:10.282Z,12.30
2019-04-27T10:10:58.184Z,8.77
2019-04-27T10:13:46.541Z,8.03
2019-04-27T10:16:36.577Z,9.30
2019-04-27T10:19:31.150Z,11.20
2019-04-27T10:22:15.972Z,7.80
2019-04-27T10:25:04.715Z,8.93
2019-04-27T10:27:58.983Z,7.60
2019-04-27T10:30:46.718Z,6.47
2019-04-27T10:33:35.884Z,6.30
2019-04-27T10:36:39.571Z,6.43
2019-04-27T10:39:27.862Z,6.77
2019-04-27T10:42:16.231Z,7.00
2019-04-27T10:45:06.276Z,5.03
2019-04-27T10:47:54.016Z,5.27
2019-04-27T10:50:42.437Z,5.60
2019-04-27T10:53:30.889Z,7.30
2019-04-27T10:56:18.951Z,6.00
2019-04-27T10:59:09.634Z,5.83
2019-04-27T11:01:57.108Z,6.23
2019-04-27T11:05:16.179Z,7.90
2019-04-27T11:08:03.723Z,7.90
2019-04-27T11:10:51.569Z,9.63
2019-04-27T11:13:39.486Z,9.30
2019-04-27T11:16:27.447Z,9.30
2019-04-27T11:19:16.863Z,10.60
2019-04-27T11:22:07.119Z,13.10
2019-04-27T11:24:56.407Z,9.10
2019-04-27T11:27:45.002Z,10.50
2019-04-27T11:30:33.612Z,11.27
2019-04-27T11:33:21.572Z,8.37
2019-04-27T11:36:27.591Z,9.60
2019-04-27T11:39:19.637Z,9.87
2019-04-27T11:42:06.080Z,14.40
2019-04-27T11:44:57.507Z,10.27
2019-04-27T11:47:44.412Z,9.10
2019-04-27T11:50:32.609Z,12.53
2019-04-27T11:53:23.053Z,8.80
2019-04-27T11:56:10.636Z,13.93
2019-04-27T11:58:58.427Z,9.50
2019-04-27T12:01:46.555Z,15.43
2019-04-27T12:04:36.418Z,11.70
2019-04-27T12:07:24.845Z,15.27
2019-04-27T12:10:13.453Z,10.97
2019-04-27T12:13:01.475Z,12.07
2019-04-27T12:15:49.412Z,12.33
2019-04-27T12:18:37.969Z,9.90
2019-04-27T12:21:26.930Z,11.87
2019-04-27T12:24:16.151Z,9.40
2019-04-27T12:27:20.351Z,9.90
2019-04-27T12:30:27.448Z,13.13
2019-04-27T12:33:15.287Z,14.47
2019-04-27T12:36:03.107Z,12.23
2019-04-27T12:38:52.000Z,13.13
2019-04-27T12:41:40.092Z,14.63
2019-04-27T12:44:27.747Z,9.63
2019-04-27T12:47:16.422Z,10.07
2019-04-27T12:50:06.174Z,6.53
2019-04-27T12:52:58.034Z,8.27
2019-04-27T12:55:59.571Z,6.50
2019-04-27T12:58:51.811Z,7.60
2019-04-27T13:01:40.259Z,7.43
2019-04-27T13:04:28.880Z,9.50
2019-04-27T13:07:17.424Z,8.27
2019-04-27T13:10:06.024Z,7.43
2019-04-27T13:12:53.951Z,4.70
2019-04-27T13:15:42.996Z,7.87
2019-04-27T13:18:30.873Z,6.10
2019-04-27T13:21:20.876Z,8.90
2019-04-27T13:24:08.542Z,10.17
2019-04-27T13:26:57.026Z,7.37
2019-04-27T13:29:46.650Z,8.97
2019-04-27T13:32:36.441Z,13.80
2019-04-27T13:35:25.852Z,5.00
2019-04-27T13:38:17.799Z,5.30
2019-04-27T13:41:11.795Z,7.30
2019-04-27T13:43:59.759Z,7.43
2019-04-27T13:47:06.207Z,4.77
2019-04-27T13:50:08.715Z,6.50
2019-04-27T13:52:57.030Z,9.10
2019-04-27T13:55:46.478Z,5.80
2019-04-27T13:58:34.267Z,6.73
2019-04-27T14:01:22.139Z,5.00
2019-04-27T14:04:10.767Z,9.30
2019-04-27T14:06:59.190Z,10.67
2019-04-27T14:09:48.579Z,7.07
2019-04-27T14:12:38.441Z,7.60
2019-04-27T14:15:26.255Z,4.70
2019-04-27T14:18:14.863Z,5.73
2019-04-27T14:21:02.412Z,5.03
2019-04-27T14:23:50.828Z,7.43
2019-04-27T14:26:39.796Z,4.80
2019-04-27T14:29:28.196Z,5.53
2019-04-27T14:32:16.228Z,5.47
2019-04-27T14:35:04.239Z,6.20
2019-04-27T14:37:52.550Z,7.53
2019-04-27T14:40:40.348Z,10.10
2019-04-27T14:43:28.743Z,10.50
2019-04-27T14:46:18.737Z,5.90
2019-04-27T14:49:07.158Z,6.57
2019-04-27T14:51:58.536Z,9.77
2019-04-27T14:54:50.228Z,5.47
2019-04-27T14:57:36.476Z,5.10
2019-04-27T15:00:25.832Z,6.63
2019-04-27T15:03:14.471Z,6.83
2019-04-27T15:06:02.515Z,5.50
2019-04-27T15:08:50.844Z,5.33
2019-04-27T15:11:39.246Z,8.77
2019-04-27T15:14:31.058Z,4.83
2019-04-27T15:17:23.352Z,5.70
2019-04-27T15:20:14.684Z,5.20
2019-04-27T15:23:02.665Z,6.90
2019-04-27T15:25:50.662Z,5.67
2019-04-27T15:28:40.122Z,4.43
2019-04-27T15:31:36.240Z,9.10
2019-04-27T15:34:35.783Z,4.30
2019-04-27T15:37:34.227Z,3.63
2019-04-27T15:40:43.745Z,5.53
2019-04-27T15:43:31.419Z,4.37
2019-04-27T15:46:19.417Z,4.87
2019-04-27T15:49:10.444Z,4.47
2019-04-27T15:51:58.423Z,6.60
2019-04-27T15:54:48.122Z,9.43
2019-04-27T15:57:35.934Z,5.73
2019-04-27T16:00:30.030Z,5.47
2019-04-27T16:03:18.494Z,6.77
2019-04-27T16:06:08.235Z,3.73
2019-04-27T16:08:56.839Z,5.57
2019-04-27T16:11:50.130Z,4.63
2019-04-27T16:14:36.448Z,3.83
2019-04-27T16:17:24.311Z,7.43
2019-04-27T16:20:22.082Z,5.50
2019-04-27T16:23:05.816Z,6.00
2019-04-27T16:25:55.087Z,4.73
2019-04-27T16:28:49.698Z,5.23
2019-04-27T16:31:36.055Z,4.20
2019-04-27T16:34:23.495Z,5.27
2019-04-27T16:37:13.969Z,6.13
2019-04-27T16:40:02.831Z,4.80
2019-04-27T16:42:54.343Z,2.23
2019-04-27T16:45:40.231Z,6.87
2019-04-27T16:48:34.334Z,5.13
2019-04-27T16:51:18.318Z,3.77
2019-04-27T16:54:06.281Z,2.90
2019-04-27T16:57:02.555Z,3.53
2019-04-27T16:59:50.610Z,4.23
2019-04-27T17:02:34.628Z,5.83
2019-04-27T17:05:24.427Z,5.60
2019-04-27T17:08:21.482Z,4.13
2019-04-27T17:11:08.304Z,8.93
2019-04-27T17:13:58.878Z,5.10
2019-04-27T17:16:59.460Z,7.67
2019-04-27T17:19:52.048Z,8.80
2019-04-27T17:22:40.123Z,6.83
2019-04-27T17:25:33.076Z,7.93
2019-04-27T17:28:18.490Z,5.87
2019-04-27T17:31:08.522Z,8.50
2019-04-27T17:34:00.567Z,7.90
2019-04-27T17:36:54.510Z,8.63
2019-04-27T17:39:38.881Z,3.50
2019-04-27T17:42:29.206Z,6.47
2019-04-27T17:45:16.463Z,4.33
2019-04-27T17:48:07.342Z,6.77
2019-04-27T17:50:55.885Z,5.97
2019-04-27T17:53:44.199Z,8.40
2019-04-27T17:56:35.887Z,8.30
2019-04-27T17:59:22.072Z,11.97
2019-04-27T18:02:10.514Z,6.73
2019-04-27T18:04:58.879Z,6.80
2019-04-27T18:07:48.575Z,7.40
2019-04-27T18:10:36.795Z,7.93
2019-04-27T18:13:25.493Z,6.20
2019-04-27T18:16:15.421Z,8.93
2019-04-27T18:19:18.546Z,8.33
2019-04-27T18:22:07.052Z,9.73
2019-04-27T18:25:07.440Z,10.40
2019-04-27T18:28:08.109Z,8.20
2019-04-27T18:31:05.214Z,8.30
2019-04-27T18:33:53.107Z,9.70
2019-04-27T18:36:43.871Z,11.70
2019-04-27T18:39:31.170Z,10.73
2019-04-27T18:42:23.263Z,13.60
2019-04-27T18:45:09.482Z,16.60
2019-04-27T18:48:06.665Z,14.73
2019-04-27T18:51:01.575Z,14.67
2019-04-27T18:53:49.962Z,18.13
2019-04-27T18:56:41.578Z,18.53
2019-04-27T18:59:29.067Z,13.97
2019-04-27T19:02:18.468Z,13.40
2019-04-27T19:05:08.875Z,14.77
2019-04-27T19:07:56.952Z,16.97
2019-04-27T19:10:45.059Z,17.73
2019-04-27T19:13:33.595Z,12.57
2019-04-27T19:16:22.431Z,14.80
2019-04-27T19:19:10.771Z,17.30
2019-04-27T19:21:59.020Z,12.63
2019-04-27T19:24:47.312Z,11.40
2019-04-27T19:28:08.438Z,11.80
2019-04-27T19:31:00.158Z,16.27
2019-04-27T19:33:48.769Z,13.57
2019-04-27T19:36:38.701Z,11.80
2019-04-27T19:39:28.598Z,14.40
2019-04-27T19:42:18.400Z,12.63
2019-04-27T19:45:06.867Z,17.37
2019-04-27T19:47:54.740Z,16.97
2019-04-27T19:50:42.239Z,15.70
2019-04-27T19:53:30.323Z,11.67
2019-04-27T19:56:19.390Z,12.90
2019-04-27T19:59:13.608Z,12.30
2019-04-27T20:02:04.671Z,18.33
2019-04-27T20:05:01.551Z,21.80
2019-04-27T20:07:49.850Z,17.73
2019-04-27T20:10:38.178Z,15.47
2019-04-27T20:13:26.447Z,15.90
2019-04-27T20:16:14.019Z,13.37
2019-04-27T20:19:02.367Z,15.57
2019-04-27T20:21:50.913Z,13.93
2019-04-27T20:24:41.393Z,14.57
2019-04-27T20:27:32.137Z,18.37
2019-04-27T20:30:21.007Z,17.53
2019-04-27T20:33:10.934Z,18.63
2019-04-27T20:35:58.835Z,14.90
2019-04-27T20:38:46.767Z,17.33
2019-04-27T20:41:34.903Z,18.50
2019-04-27T20:44:23.763Z,21.00
2019-04-27T20:47:11.960Z,20.73
2019-04-27T20:50:00.680Z,27.70
2019-04-27T20:52:53.733Z,25.83
2019-04-27T20:55:43.239Z,28.60
2019-04-27T20:58:31.750Z,26.17
2019-04-27T21:01:19.383Z,22.80
2019-04-27T21:04:07.364Z,26.30
2019-04-27T21:06:58.582Z,24.37
2019-04-27T21:09:47.282Z,24.20
2019-04-27T21:12:35.611Z,20.80
2019-04-27T21:15:24.226Z,17.80
2019-04-27T21:18:12.427Z,25.67
2019-04-27T21:21:01.228Z,18.10
2019-04-27T21:23:51.359Z,16.17
2019-04-27T21:26:39.002Z,16.20
2019-04-27T21:29:27.331Z,17.03
2019-04-27T21:32:15.711Z,17.00
2019-04-27T21:35:04.044Z,22.93
2019-04-27T21:37:51.622Z,14.80
2019-04-27T21:40:40.883Z,16.93
2019-04-27T21:43:29.423Z,15.03
2019-04-27T21:46:18.235Z,13.83
2019-04-27T21:49:06.964Z,18.53
2019-04-27T21:52:12.713Z,18.23
2019-04-27T21:54:58.739Z,16.90
2019-04-27T21:57:47.247Z,19.57
2019-04-27T22:00:55.635Z,21.80
2019-04-27T22:03:43.703Z,14.97
2019-04-27T22:06:32.478Z,20.17
2019-04-27T22:09:21.119Z,12.73
2019-04-27T22:12:11.093Z,16.83
2019-04-27T22:14:59.054Z,18.10
2019-04-27T22:17:47.007Z,18.57
2019-04-27T22:20:35.578Z,19.80
2019-04-27T22:23:33.248Z,16.17
2019-04-27T22:26:21.468Z,16.57
2019-04-27T22:29:12.031Z,24.60
2019-04-27T22:32:01.646Z,18.87
2019-04-27T22:34:50.103Z,20.43
2019-04-27T22:37:38.651Z,15.83
2019-04-27T22:40:50.881Z,21.60
2019-04-27T22:44:01.347Z,21.53
2019-04-27T22:46:50.335Z,17.73
2019-04-27T22:49:38.687Z,15.33
2019-04-27T22:52:26.244Z,20.17
2019-04-27T22:55:14.604Z,12.83
2019-04-27T22:58:08.803Z,19.17
2019-04-27T23:01:07.628Z,14.80
2019-04-27T23:03:56.517Z,14.20
2019-04-27T23:06:44.019Z,20.83
2019-04-27T23:09:32.285Z,21.87
2019-04-27T23:12:21.327Z,13.00
2019-04-27T23:15:13.176Z,17.73
2019-04-27T23:18:00.866Z,14.67
2019-04-27T23:20:48.850Z,14.80
2019-04-27T23:23:37.267Z,19.87
2019-04-27T23:26:24.919Z,16.00
2019-04-27T23:29:15.864Z,17.73
2019-04-27T23:32:08.195Z,18.23
2019-04-27T23:34:55.875Z,16.90
2019-04-27T23:37:43.455Z,19.80
2019-04-27T23:40:31.765Z,16.17
2019-04-27T23:43:20.111Z,23.00
2019-04-27T23:46:08.840Z,15.67
2019-04-27T23:48:56.572Z,16.20
2019-04-27T23:51:49.383Z,13.57
2019-04-27T23:54:37.119Z,14.50
2019-04-27T23:57:25.803Z,14.97
